Time;durP1;ratioP1;P1;durP2;ratioP2;P2;SDS_P1;SDS_P2;PMS_P1;PMS_P2;Temp;Humidity;BMP_temperature;BMP_pressure;BME280_temperature;BME280_humidity;BME280_pressure;Samples;Min_cycle;Max_cycle;Signal;HPM_P1;HPM_P2
2023/08/04 00:00:29;;;;;;;16.05;4.78;;;16.00;99.90;;;;;;4008515;29;20271;-91
2023/08/04 00:02:29;;;;;;;13.93;4.78;;;15.90;99.90;;;;;;4008704;29;20194;-91
2023/08/04 00:04:30;;;;;;;14.32;4.15;;;15.90;99.90;;;;;;4008699;29;20175;-92
2023/08/04 00:06:32;;;;;;;20.98;4.85;;;15.80;99.90;;;;;;4008722;29;20191;-91
2023/08/04 00:08:32;;;;;;;11.27;4.22;;;15.80;99.90;;;;;;4008667;29;20230;-91
2023/08/04 00:10:33;;;;;;;24.35;4.80;;;15.70;99.90;;;;;;4008421;29;20211;-91
2023/08/04 00:12:34;;;;;;;14.30;4.00;;;15.70;99.90;;;;;;3993513;29;20237;-91
2023/08/04 00:14:36;;;;;;;15.32;4.20;;;15.70;99.90;;;;;;3993455;29;20256;-92
2023/08/04 00:16:37;;;;;;;17.25;4.15;;;15.70;99.90;;;;;;4008585;29;20211;-90
2023/08/04 00:18:38;;;;;;;20.27;4.68;;;15.50;99.90;;;;;;4008406;29;20219;-91
2023/08/04 00:20:39;;;;;;;21.50;4.95;;;15.50;99.90;;;;;;4008397;29;20263;-91
2023/08/04 00:22:39;;;;;;;23.73;4.40;;;15.60;99.90;;;;;;3993443;29;20191;-91
2023/08/04 00:24:40;;;;;;;19.38;4.78;;;15.70;99.90;;;;;;3993238;29;20664;-91
2023/08/04 00:26:41;;;;;;;16.48;4.43;;;15.70;99.90;;;;;;4008201;29;20239;-91
2023/08/04 00:28:42;;;;;;;14.05;4.20;;;15.70;99.90;;;;;;4007559;29;20214;-91
2023/08/04 00:30:42;;;;;;;14.38;4.38;;;15.50;99.90;;;;;;3993454;29;20211;-92
2023/08/04 00:32:43;;;;;;;15.73;5.32;;;15.50;99.90;;;;;;3993227;29;20225;-91
2023/08/04 00:34:45;;;;;;;12.57;4.40;;;15.50;99.90;;;;;;4008295;29;20232;-90
2023/08/04 00:36:46;;;;;;;16.80;4.95;;;15.40;99.90;;;;;;3993034;29;20241;-92
2023/08/04 00:38:47;;;;;;;21.38;4.70;;;15.30;99.90;;;;;;4008122;29;20618;-91
2023/08/04 00:40:48;;;;;;;16.73;4.70;;;15.30;99.90;;;;;;3993262;29;20191;-91
2023/08/04 00:42:49;;;;;;;16.30;4.93;;;15.40;99.90;;;;;;3993207;29;20222;-92
2023/08/04 00:44:50;;;;;;;12.68;4.65;;;15.40;99.90;;;;;;4008257;29;20541;-90
2023/08/04 00:46:53;;;;;;;20.75;5.00;;;15.30;99.90;;;;;;3993433;29;20187;-91
2023/08/04 00:48:54;;;;;;;20.80;4.90;;;15.30;99.90;;;;;;4008042;29;20229;-92
2023/08/04 00:50:55;;;;;;;22.08;4.75;;;15.30;99.90;;;;;;4007912;29;20274;-90
2023/08/04 00:52:56;;;;;;;18.67;4.93;;;15.30;99.90;;;;;;3992861;29;20670;-91
2023/08/04 00:54:57;;;;;;;24.25;5.07;;;15.40;99.90;;;;;;4023069;29;20197;-91
2023/08/04 00:56:58;;;;;;;23.77;5.15;;;15.40;99.90;;;;;;3993087;29;20188;-90
2023/08/04 00:58:58;;;;;;;18.45;5.07;;;15.40;99.90;;;;;;4007813;29;20249;-92
2023/08/04 01:01:00;;;;;;;13.77;5.00;;;15.30;99.90;;;;;;4007744;29;20183;-90
2023/08/04 01:03:01;;;;;;;15.80;4.40;;;15.30;99.90;;;;;;3992671;29;20240;-90
2023/08/04 01:05:03;;;;;;;19.13;5.03;;;15.40;99.90;;;;;;4008093;29;20273;-91
2023/08/04 01:07:23;;;;;;;19.30;5.03;;;15.30;99.90;;;;;;3992706;29;20257;-92
2023/08/04 01:09:30;;;;;;;18.50;5.32;;;15.20;99.90;;;;;;3992634;29;20692;-90
2023/08/04 01:11:39;;;;;;;19.67;5.15;;;15.00;99.90;;;;;;4023003;29;20205;-91
2023/08/04 01:13:42;;;;;;;14.38;4.97;;;15.10;99.90;;;;;;4022899;29;20190;-89
2023/08/04 01:15:43;;;;;;;17.33;4.70;;;15.10;99.90;;;;;;4022889;29;20190;-92
2023/08/04 01:17:44;;;;;;;18.45;5.22;;;15.20;99.90;;;;;;3992700;29;20183;-91
2023/08/04 01:19:45;;;;;;;19.92;5.40;;;15.30;99.90;;;;;;3992456;29;20229;-91
2023/08/04 01:21:45;;;;;;;17.17;5.13;;;15.30;99.90;;;;;;4007656;29;20189;-90
2023/08/04 01:23:46;;;;;;;19.17;5.22;;;15.30;99.90;;;;;;4007857;29;20199;-90
2023/08/04 01:25:47;;;;;;;15.75;5.55;;;15.40;99.90;;;;;;4007550;29;20324;-90
2023/08/04 01:27:56;;;;;;;22.98;5.15;;;15.40;99.90;;;;;;4007263;29;20226;-92
2023/08/04 01:30:00;;;;;;;18.75;5.70;;;15.50;99.90;;;;;;4022627;29;20205;-91
2023/08/04 01:32:02;;;;;;;18.60;5.40;;;15.50;99.90;;;;;;4007676;29;20183;-90
2023/08/04 01:34:03;;;;;;;25.05;5.40;;;15.50;99.90;;;;;;4022643;29;20199;-91
2023/08/04 01:36:04;;;;;;;20.33;5.57;;;15.40;99.90;;;;;;4007246;29;20190;-91
2023/08/04 01:38:04;;;;;;;17.27;4.90;;;15.40;99.90;;;;;;3992809;29;20187;-90
2023/08/04 01:40:06;;;;;;;19.30;5.15;;;15.40;99.90;;;;;;3992254;29;20211;-91
2023/08/04 01:42:07;;;;;;;15.02;5.05;;;15.50;99.90;;;;;;4007471;29;20668;-89
2023/08/04 01:44:08;;;;;;;15.80;4.97;;;15.50;99.90;;;;;;4007292;29;20339;-90
2023/08/04 01:46:08;;;;;;;15.55;4.80;;;15.60;99.90;;;;;;3992247;29;20188;-90
2023/08/04 01:48:09;;;;;;;12.52;4.50;;;15.70;99.90;;;;;;4007241;29;20214;-91
2023/08/04 01:50:11;;;;;;;12.00;4.65;;;15.60;99.90;;;;;;3991995;29;20794;-91
2023/08/04 01:52:12;;;;;;;14.05;4.60;;;15.70;99.90;;;;;;4022394;29;20185;-90
2023/08/04 01:54:13;;;;;;;15.55;5.35;;;15.70;99.90;;;;;;4007481;29;20568;-90
2023/08/04 01:56:13;;;;;;;22.80;5.47;;;15.80;99.90;;;;;;3992184;29;20587;-92
2023/08/04 01:58:15;;;;;;;19.65;5.28;;;15.80;99.90;;;;;;3992142;29;20214;-90
2023/08/04 02:00:18;;;;;;;23.70;6.07;;;15.90;99.90;;;;;;3991807;29;20685;-91
2023/08/04 02:02:19;;;;;;;16.60;5.38;;;15.90;99.90;;;;;;4006986;29;20215;-91
2023/08/04 02:04:19;;;;;;;16.75;5.43;;;16.00;99.90;;;;;;4006906;29;20247;-90
2023/08/04 02:06:20;;;;;;;17.45;5.03;;;16.10;99.90;;;;;;4006960;29;20518;-92
2023/08/04 02:08:21;;;;;;;17.25;4.72;;;16.20;99.90;;;;;;4007173;29;20699;-91
2023/08/04 02:10:22;;;;;;;16.88;5.47;;;16.20;99.90;;;;;;4006974;29;20345;-91
2023/08/04 02:12:22;;;;;;;16.75;4.97;;;16.30;99.90;;;;;;3992079;29;20279;-91
2023/08/04 02:14:23;;;;;;;13.85;4.93;;;16.40;99.90;;;;;;4007056;29;20195;-90
2023/08/04 02:16:24;;;;;;;20.83;6.10;;;16.40;99.90;;;;;;4006970;29;20664;-90
2023/08/04 02:18:25;;;;;;;20.33;5.07;;;16.20;99.90;;;;;;4007074;29;20187;-90
2023/08/04 02:20:26;;;;;;;18.08;5.38;;;16.20;99.90;;;;;;4006975;29;20263;-90
2023/08/04 02:22:27;;;;;;;13.75;5.03;;;16.20;99.90;;;;;;4007181;29;20182;-90
2023/08/04 02:24:27;;;;;;;11.52;4.88;;;16.20;99.90;;;;;;4006943;29;20683;-90
2023/08/04 02:26:29;;;;;;;20.00;5.00;;;16.40;99.90;;;;;;4006758;29;20191;-90
2023/08/04 02:28:30;;;;;;;19.77;5.13;;;16.50;99.90;;;;;;3991654;29;20227;-90
2023/08/04 02:30:30;;;;;;;14.23;5.00;;;16.50;99.90;;;;;;4006568;29;20245;-90
2023/08/04 02:32:31;;;;;;;17.27;5.72;;;16.50;99.90;;;;;;4006955;29;20557;-91
2023/08/04 02:34:32;;;;;;;17.30;5.53;;;16.50;99.90;;;;;;4006902;29;20273;-90
2023/08/04 02:36:33;;;;;;;18.30;5.50;;;16.40;99.90;;;;;;3991778;29;20623;-90
2023/08/04 02:38:33;;;;;;;15.95;5.72;;;16.40;99.90;;;;;;4006934;29;20195;-90
2023/08/04 02:40:38;;;;;;;16.17;5.38;;;16.50;99.90;;;;;;4006922;29;20202;-91
2023/08/04 02:42:39;;;;;;;17.65;5.03;;;16.50;99.90;;;;;;3991744;29;20629;-91
2023/08/04 02:44:40;;;;;;;18.42;5.03;;;16.60;99.90;;;;;;4006879;29;20560;-90
2023/08/04 02:46:45;;;;;;;15.30;4.72;;;16.50;99.90;;;;;;4006637;29;20183;-90
2023/08/04 02:48:45;;;;;;;16.90;5.25;;;16.50;99.90;;;;;;3991616;29;20266;-89
2023/08/04 02:50:47;;;;;;;9.90;4.72;;;16.50;99.90;;;;;;4007313;29;20195;-90
2023/08/04 02:52:47;;;;;;;12.02;4.70;;;16.60;99.90;;;;;;3994491;29;20255;-90
2023/08/04 02:54:48;;;;;;;12.25;4.55;;;16.60;99.90;;;;;;4009801;29;20269;-91
2023/08/04 02:56:49;;;;;;;12.82;4.82;;;16.70;99.90;;;;;;4009944;29;20721;-89
2023/08/04 02:58:50;;;;;;;12.10;4.47;;;16.80;99.90;;;;;;4009851;29;20220;-89
2023/08/04 03:00:51;;;;;;;9.02;3.80;;;16.80;99.90;;;;;;4009675;29;20195;-90
2023/08/04 03:02:52;;;;;;;15.40;4.57;;;16.70;99.90;;;;;;3994231;29;20179;-89
2023/08/04 03:04:53;;;;;;;16.80;4.43;;;16.70;99.90;;;;;;4009891;29;20548;-90
2023/08/04 03:06:53;;;;;;;12.40;4.45;;;16.70;99.90;;;;;;4009692;29;20199;-89
2023/08/04 03:08:54;;;;;;;11.43;4.55;;;16.70;99.90;;;;;;3994470;29;20235;-92
2023/08/04 03:10:55;;;;;;;17.42;5.05;;;16.70;99.90;;;;;;4009571;29;20214;-92
2023/08/04 03:12:56;;;;;;;11.52;4.82;;;16.70;99.90;;;;;;4009465;29;20187;-90
2023/08/04 03:14:56;;;;;;;10.45;5.25;;;16.70;99.90;;;;;;4009574;29;20175;-93
2023/08/04 03:16:57;;;;;;;13.73;5.10;;;16.80;99.90;;;;;;4009444;29;20198;-92
2023/08/04 03:18:58;;;;;;;21.17;5.55;;;16.70;99.90;;;;;;4009377;29;20229;-91
2023/08/04 03:21:02;;;;;;;17.77;5.32;;;16.70;99.90;;;;;;4009315;29;20258;-91
2023/08/04 03:23:04;;;;;;;15.18;5.50;;;16.70;99.90;;;;;;3994025;29;20286;-92
2023/08/04 03:25:06;;;;;;;9.20;4.68;;;16.60;99.90;;;;;;4009648;29;20207;-92
2023/08/04 03:27:07;;;;;;;12.43;4.82;;;16.60;99.90;;;;;;4009259;29;20718;-91
2023/08/04 03:29:08;;;;;;;11.50;5.28;;;16.60;99.90;;;;;;4009185;29;20320;-91
2023/08/04 03:31:09;;;;;;;11.02;5.30;;;16.50;99.90;;;;;;4009317;29;20183;-90
2023/08/04 03:33:09;;;;;;;14.18;5.30;;;16.50;99.90;;;;;;4009342;29;20208;-90
2023/08/04 03:35:10;;;;;;;14.27;5.70;;;16.40;99.90;;;;;;4009286;29;20187;-92
2023/08/04 03:37:11;;;;;;;12.77;5.88;;;16.40;99.90;;;;;;4009110;29;20187;-91
2023/08/04 03:39:12;;;;;;;19.25;5.95;;;16.40;99.90;;;;;;4009159;29;20214;-92
2023/08/04 03:41:12;;;;;;;16.02;5.63;;;16.40;99.90;;;;;;4009108;29;20246;-92
2023/08/04 03:43:13;;;;;;;17.23;5.25;;;16.40;99.90;;;;;;4009080;29;20193;-90
2023/08/04 03:45:14;;;;;;;19.40;4.88;;;16.40;99.90;;;;;;4008724;29;20193;-89
2023/08/04 03:47:15;;;;;;;13.45;5.30;;;16.50;99.90;;;;;;4009020;29;20187;-92
2023/08/04 03:49:16;;;;;;;14.73;5.05;;;16.50;99.90;;;;;;3993628;29;20318;-92
2023/08/04 03:51:17;;;;;;;8.02;4.45;;;16.50;99.90;;;;;;4009071;29;20186;-89
2023/08/04 03:53:18;;;;;;;17.38;6.25;;;16.40;99.90;;;;;;4009030;29;20198;-92
2023/08/04 03:55:19;;;;;;;16.17;5.05;;;16.40;99.90;;;;;;4008885;29;20175;-89
2023/08/04 03:57:20;;;;;;;11.20;5.00;;;16.40;99.90;;;;;;3993585;29;20198;-92
2023/08/04 03:59:21;;;;;;;13.05;5.45;;;16.40;99.90;;;;;;3993688;29;20203;-92
2023/08/04 04:01:21;;;;;;;15.70;5.63;;;16.30;99.90;;;;;;4008931;29;20281;-92
2023/08/04 04:03:22;;;;;;;21.08;6.03;;;16.30;99.90;;;;;;4007806;29;20665;-89
2023/08/04 04:05:23;;;;;;;16.95;5.72;;;16.10;99.90;;;;;;3993700;29;20179;-89
2023/08/04 04:07:24;;;;;;;17.30;6.15;;;16.00;99.90;;;;;;3993703;29;20184;-92
2023/08/04 04:09:24;;;;;;;11.85;5.90;;;16.00;99.90;;;;;;4008728;29;20282;-92
2023/08/04 04:11:25;;;;;;;22.23;6.85;;;16.00;99.90;;;;;;3993572;29;20274;-92
2023/08/04 04:13:26;;;;;;;11.75;5.78;;;15.90;99.90;;;;;;4008496;29;20222;-91
2023/08/04 04:15:27;;;;;;;15.38;6.70;;;15.90;99.90;;;;;;4008667;29;20189;-91
2023/08/04 04:17:27;;;;;;;16.77;6.68;;;15.90;99.90;;;;;;4008587;29;20267;-92
2023/08/04 04:19:28;;;;;;;16.40;6.55;;;15.80;99.90;;;;;;4008548;29;20220;-90
2023/08/04 04:21:29;;;;;;;14.15;5.80;;;15.80;99.90;;;;;;4008468;29;20191;-92
2023/08/04 04:23:30;;;;;;;14.90;6.00;;;15.80;99.90;;;;;;4008380;29;20180;-91
2023/08/04 04:25:31;;;;;;;14.15;6.68;;;15.80;99.90;;;;;;4008425;29;20661;-92
2023/08/04 04:27:31;;;;;;;18.13;7.00;;;15.70;99.90;;;;;;4008566;29;20217;-89
2023/08/04 04:29:32;;;;;;;25.52;7.90;;;15.60;99.90;;;;;;4008427;29;20223;-92
2023/08/04 04:31:33;;;;;;;14.38;6.82;;;15.50;99.90;;;;;;4008346;29;20231;-92
2023/08/04 04:33:34;;;;;;;17.48;7.35;;;15.40;99.90;;;;;;4008371;29;20191;-90
2023/08/04 04:35:35;;;;;;;23.95;7.15;;;15.40;99.90;;;;;;4008352;29;20195;-89
2023/08/04 04:37:35;;;;;;;22.55;8.05;;;15.30;99.90;;;;;;3993015;29;20199;-90
2023/08/04 04:39:36;;;;;;;11.82;6.90;;;15.30;99.90;;;;;;4008002;29;20203;-89
2023/08/04 04:41:38;;;;;;;22.33;7.78;;;15.30;99.90;;;;;;4008334;29;20183;-90
2023/08/04 04:43:39;;;;;;;18.13;6.97;;;15.20;99.90;;;;;;4008332;29;20187;-92
2023/08/04 04:45:48;;;;;;;22.50;7.78;;;15.20;99.90;;;;;;3992915;29;20247;-91
2023/08/04 04:47:50;;;;;;;21.52;7.60;;;15.20;99.90;;;;;;4023318;29;20381;-89
2023/08/04 04:49:51;;;;;;;19.83;7.40;;;15.30;99.90;;;;;;4008057;29;20207;-92
2023/08/04 04:51:51;;;;;;;16.42;6.72;;;15.20;99.90;;;;;;3993119;29;20184;-92
2023/08/04 04:53:52;;;;;;;15.40;6.97;;;15.30;99.90;;;;;;4008020;29;20243;-92
2023/08/04 04:55:55;;;;;;;16.52;6.93;;;15.50;99.90;;;;;;3993029;29;20191;-92
2023/08/04 04:57:56;;;;;;;17.83;7.93;;;15.70;99.90;;;;;;4007935;29;20222;-92
2023/08/04 04:59:56;;;;;;;19.60;7.70;;;15.80;99.90;;;;;;4007855;29;20207;-92
2023/08/04 05:01:57;;;;;;;22.05;6.85;;;15.70;99.90;;;;;;4008290;29;20191;-91
2023/08/04 05:03:58;;;;;;;9.80;6.50;;;15.70;99.90;;;;;;3992858;29;20191;-93
2023/08/04 05:05:59;;;;;;;18.42;7.85;;;15.80;99.90;;;;;;4008228;29;20568;-92
2023/08/04 05:08:00;;;;;;;13.32;7.50;;;15.80;99.90;;;;;;3992866;29;20218;-89
2023/08/04 05:10:00;;;;;;;19.48;6.80;;;16.00;99.90;;;;;;4007728;29;20691;-92
2023/08/04 05:12:01;;;;;;;11.25;7.18;;;16.20;99.90;;;;;;3992855;29;20267;-92
2023/08/04 05:14:02;;;;;;;16.35;7.18;;;16.30;99.90;;;;;;4007587;29;20191;-89
2023/08/04 05:16:04;;;;;;;16.05;7.45;;;16.40;99.90;;;;;;4022902;29;20178;-89
2023/08/04 05:18:05;;;;;;;14.82;6.65;;;16.50;99.90;;;;;;4007752;29;20207;-89
2023/08/04 05:20:07;;;;;;;22.13;8.00;;;16.50;99.90;;;;;;3992582;29;20207;-89
2023/08/04 05:22:08;;;;;;;16.35;7.65;;;16.50;99.90;;;;;;4007636;29;20202;-89
2023/08/04 05:24:09;;;;;;;16.33;7.18;;;16.60;99.90;;;;;;3992739;29;20557;-89
2023/08/04 05:26:09;;;;;;;17.27;7.30;;;16.60;99.90;;;;;;4007262;29;20289;-92
2023/08/04 05:28:42;;;;;;;17.65;7.60;;;16.60;99.90;;;;;;4007408;29;20210;-89
2023/08/04 05:30:43;;;;;;;14.07;7.30;;;16.70;99.90;;;;;;3982063;29;20781;-89
2023/08/04 05:32:44;;;;;;;21.85;8.50;;;16.80;99.90;;;;;;3992617;29;20184;-89
2023/08/04 05:34:45;;;;;;;15.55;8.23;;;16.90;99.90;;;;;;4007335;29;20235;-89
2023/08/04 05:36:45;;;;;;;18.75;8.07;;;17.00;99.90;;;;;;4007461;29;20187;-90
2023/08/04 05:38:46;;;;;;;15.70;8.35;;;17.00;99.90;;;;;;3992362;29;20192;-89
2023/08/04 05:40:48;;;;;;;15.23;7.65;;;17.10;99.90;;;;;;3992201;29;20618;-92
2023/08/04 05:42:51;;;;;;;20.98;9.63;;;17.10;99.90;;;;;;4007200;29;20274;-92
2023/08/04 05:44:51;;;;;;;16.30;9.57;;;17.20;99.90;;;;;;4007262;29;20194;-90
2023/08/04 05:46:52;;;;;;;15.40;9.48;;;17.20;99.90;;;;;;4007173;29;20278;-92
2023/08/04 05:48:53;;;;;;;18.42;9.20;;;17.30;99.90;;;;;;4007138;29;20313;-89
2023/08/04 05:50:55;;;;;;;15.25;9.50;;;17.30;99.90;;;;;;4006895;29;20202;-92
2023/08/04 05:52:56;;;;;;;18.83;9.52;;;17.50;99.90;;;;;;3992148;29;20188;-91
2023/08/04 05:54:57;;;;;;;19.52;8.80;;;17.70;99.90;;;;;;4007158;29;20212;-89
2023/08/04 05:56:58;;;;;;;19.88;8.85;;;17.70;99.90;;;;;;4007328;29;20183;-93
2023/08/04 05:58:58;;;;;;;16.50;8.82;;;17.70;99.90;;;;;;3992051;29;20233;-92
2023/08/04 06:00:59;;;;;;;14.85;8.55;;;17.60;99.90;;;;;;4007469;29;20186;-93
2023/08/04 06:03:00;;;;;;;12.57;8.50;;;17.70;99.90;;;;;;4007530;29;20187;-88
2023/08/04 06:05:00;;;;;;;13.90;8.23;;;17.80;99.90;;;;;;4007273;29;20219;-93
2023/08/04 06:07:01;;;;;;;17.20;8.20;;;18.00;99.90;;;;;;3992166;29;20241;-93
2023/08/04 06:09:03;;;;;;;17.75;8.35;;;18.10;99.90;;;;;;3992195;29;20236;-88
2023/08/04 06:11:03;;;;;;;18.00;7.53;;;18.00;99.90;;;;;;4006924;29;20194;-89
2023/08/04 06:13:05;;;;;;;18.80;8.35;;;18.10;99.90;;;;;;3991899;29;20545;-89
2023/08/04 06:15:07;;;;;;;15.80;7.85;;;18.20;99.90;;;;;;4006936;29;20187;-89
2023/08/04 06:17:08;;;;;;;15.82;8.27;;;18.30;99.90;;;;;;4022164;29;20652;-92
2023/08/04 06:19:08;;;;;;;14.38;7.97;;;18.30;99.90;;;;;;4006768;29;20263;-94
2023/08/04 06:21:09;;;;;;;14.48;8.55;;;18.30;99.90;;;;;;3992211;29;20180;-93
2023/08/04 06:23:11;;;;;;;17.45;8.02;;;18.40;99.90;;;;;;4007000;29;20768;-93
2023/08/04 06:25:14;;;;;;;18.08;7.88;;;18.50;99.90;;;;;;3991349;29;20661;-89
2023/08/04 06:27:14;;;;;;;14.63;7.72;;;18.50;99.90;;;;;;4006716;29;20186;-89
2023/08/04 06:29:15;;;;;;;12.27;7.70;;;18.40;99.90;;;;;;3992108;29;20322;-91
2023/08/04 06:31:16;;;;;;;18.63;8.43;;;18.60;99.90;;;;;;3991715;29;20183;-89
2023/08/04 06:33:17;;;;;;;14.85;8.13;;;18.50;99.90;;;;;;3991755;29;20179;-89
2023/08/04 06:35:17;;;;;;;16.25;9.40;;;18.60;99.90;;;;;;4006710;29;20182;-93
2023/08/04 06:37:18;;;;;;;21.63;8.85;;;18.60;99.90;;;;;;4006767;29;20187;-89
2023/08/04 06:39:19;;;;;;;18.15;9.13;;;18.70;99.90;;;;;;3991570;29;20207;-93
2023/08/04 06:41:20;;;;;;;14.63;7.93;;;18.80;99.90;;;;;;4006863;29;20179;-93
2023/08/04 06:43:20;;;;;;;17.48;8.65;;;18.80;99.90;;;;;;4006999;29;20198;-88
2023/08/04 06:45:21;;;;;;;15.68;8.15;;;18.80;99.90;;;;;;3991750;29;20270;-92
2023/08/04 06:47:22;;;;;;;14.82;7.38;;;18.80;99.90;;;;;;3991780;29;20192;-89
2023/08/04 06:49:23;;;;;;;15.10;7.63;;;18.70;99.90;;;;;;4006417;29;20230;-92
2023/08/04 06:51:23;;;;;;;19.77;7.55;;;18.70;99.90;;;;;;4006632;29;20182;-89
2023/08/04 06:53:24;;;;;;;12.80;6.88;;;18.80;99.90;;;;;;4006646;29;20194;-88
2023/08/04 06:55:25;;;;;;;18.15;6.95;;;18.80;99.90;;;;;;4006740;29;20198;-92
2023/08/04 06:57:26;;;;;;;11.10;6.50;;;18.80;99.90;;;;;;4006797;29;20259;-89
2023/08/04 06:59:27;;;;;;;12.73;5.40;;;18.80;99.90;;;;;;3991474;29;20210;-89
2023/08/04 07:01:27;;;;;;;13.88;5.43;;;18.70;99.90;;;;;;4006744;29;20185;-89
2023/08/04 07:03:28;;;;;;;11.07;4.03;;;18.40;99.90;;;;;;4006701;29;20187;-90
2023/08/04 07:05:29;;;;;;;9.20;3.50;;;18.40;99.90;;;;;;3991669;29;20183;-88
2023/08/04 07:07:30;;;;;;;5.72;2.97;;;18.20;99.90;;;;;;4006449;29;20187;-89
2023/08/04 07:09:30;;;;;;;4.28;2.80;;;18.00;99.90;;;;;;4006574;29;20322;-89
2023/08/04 07:11:31;;;;;;;9.02;2.90;;;18.00;99.90;;;;;;3991450;29;20180;-88
2023/08/04 07:13:32;;;;;;;5.45;2.92;;;18.00;99.90;;;;;;3991459;29;20196;-89
2023/08/04 07:15:32;;;;;;;7.32;3.38;;;18.10;99.90;;;;;;3991410;29;20199;-90
2023/08/04 07:17:33;;;;;;;7.25;2.90;;;18.30;99.90;;;;;;3991364;29;20194;-89
2023/08/04 07:19:34;;;;;;;5.30;2.42;;;18.30;99.90;;;;;;4006505;29;20207;-94
2023/08/04 07:21:36;;;;;;;3.35;2.13;;;18.30;99.90;;;;;;4006395;29;20274;-90
2023/08/04 07:23:38;;;;;;;3.90;2.20;;;18.30;99.90;;;;;;4006604;29;20683;-90
2023/08/04 07:25:38;;;;;;;5.38;2.58;;;18.50;99.90;;;;;;3991275;29;20199;-89
2023/08/04 07:27:39;;;;;;;8.45;2.10;;;18.40;99.90;;;;;;3991763;29;20202;-89
2023/08/04 07:29:40;;;;;;;4.63;2.05;;;18.50;99.90;;;;;;3991602;29;20212;-89
2023/08/04 07:31:41;;;;;;;6.93;2.42;;;18.60;99.90;;;;;;3991347;29;20194;-89
2023/08/04 07:33:42;;;;;;;4.10;1.98;;;18.50;99.90;;;;;;3991463;29;20187;-89
2023/08/04 07:35:43;;;;;;;6.80;2.20;;;18.40;99.90;;;;;;4021476;29;20539;-89
2023/08/04 07:37:44;;;;;;;3.33;1.92;;;18.50;99.90;;;;;;4007965;29;20187;-89
2023/08/04 07:39:45;;;;;;;3.22;2.08;;;18.60;99.90;;;;;;3994015;29;20584;-89
2023/08/04 07:41:46;;;;;;;3.95;2.10;;;18.50;99.90;;;;;;3993875;29;20278;-89
2023/08/04 07:43:47;;;;;;;37.38;5.35;;;18.50;99.90;;;;;;4009028;29;20191;-93
2023/08/04 07:45:47;;;;;;;58.47;7.65;;;18.70;99.90;;;;;;4008914;29;20239;-88
2023/08/04 07:47:48;;;;;;;10.35;2.15;;;18.70;99.90;;;;;;4008955;29;20563;-93
2023/08/04 07:49:49;;;;;;;2.97;1.85;;;18.60;99.90;;;;;;3993821;29;20211;-90
2023/08/04 07:51:50;;;;;;;4.65;2.00;;;18.50;99.90;;;;;;3993804;29;20188;-90
2023/08/04 07:53:50;;;;;;;11.20;2.30;;;18.40;99.90;;;;;;4009133;29;20194;-89
2023/08/04 07:55:58;;;;;;;7.45;2.15;;;18.40;99.90;;;;;;3994008;29;20196;-90
2023/08/04 07:57:58;;;;;;;4.35;1.58;;;18.10;99.90;;;;;;4024145;29;20179;-89
2023/08/04 07:59:59;;;;;;;5.43;1.90;;;17.80;99.90;;;;;;4008778;29;20225;-90
2023/08/04 08:02:00;;;;;;;6.72;1.83;;;17.70;99.90;;;;;;3993639;29;20184;-90
2023/08/04 08:04:01;;;;;;;5.30;1.60;;;17.90;99.90;;;;;;3993586;29;20192;-94
2023/08/04 08:06:02;;;;;;;3.25;2.08;;;17.90;99.90;;;;;;4008847;29;20703;-90
2023/08/04 08:08:03;;;;;;;5.43;1.77;;;18.10;99.90;;;;;;4008569;29;20214;-91
2023/08/04 08:10:05;;;;;;;7.15;1.95;;;18.10;99.90;;;;;;4008568;29;20586;-94
2023/08/04 08:12:06;;;;;;;4.65;1.73;;;18.20;99.90;;;;;;4008580;29;20183;-92
2023/08/04 08:14:07;;;;;;;4.50;1.65;;;18.30;99.90;;;;;;3993618;29;20192;-90
2023/08/04 08:16:14;;;;;;;4.00;1.60;;;18.30;99.90;;;;;;4008388;29;20652;-90
2023/08/04 08:18:15;;;;;;;2.85;1.52;;;18.50;99.90;;;;;;3993240;29;20268;-90
2023/08/04 08:20:15;;;;;;;5.93;1.60;;;18.80;99.90;;;;;;4008471;29;20625;-92
2023/08/04 08:22:16;;;;;;;1.83;1.50;;;18.60;99.90;;;;;;4023823;29;20186;-92
2023/08/04 08:24:17;;;;;;;63.17;8.25;;;18.80;99.90;;;;;;4008548;29;20278;-91
2023/08/04 08:26:18;;;;;;;17.13;3.03;;;18.80;99.90;;;;;;4008583;29;20273;-92
2023/08/04 08:28:19;;;;;;;6.60;2.30;;;19.10;99.90;;;;;;4008390;29;20282;-89
2023/08/04 08:30:19;;;;;;;3.88;1.80;;;19.30;99.90;;;;;;3993168;29;20585;-92
2023/08/04 08:32:20;;;;;;;24.60;3.90;;;19.10;99.90;;;;;;4008184;29;20278;-92
2023/08/04 08:34:21;;;;;;;10.85;2.70;;;19.40;99.90;;;;;;4023495;29;20648;-91
2023/08/04 08:36:22;;;;;;;10.68;2.90;;;19.40;99.90;;;;;;4008273;29;20183;-92
2023/08/04 08:38:23;;;;;;;4.15;2.10;;;19.80;99.90;;;;;;4008124;29;20187;-92
2023/08/04 08:40:25;;;;;;;5.15;1.83;;;20.50;99.90;;;;;;4008395;29;20214;-94
2023/08/04 08:42:26;;;;;;;5.60;1.98;;;21.10;99.90;;;;;;3993292;29;20324;-93
2023/08/04 08:44:27;;;;;;;5.13;2.15;;;22.00;99.90;;;;;;4008128;29;20195;-93
2023/08/04 08:46:28;;;;;;;4.40;1.77;;;21.60;99.90;;;;;;3993025;29;20184;-90
2023/08/04 08:48:35;;;;;;;5.90;1.88;;;22.30;99.90;;;;;;3992339;29;20223;-92
2023/08/04 08:50:38;;;;;;;4.88;1.80;;;22.50;99.90;;;;;;3993376;29;20543;-94
2023/08/04 08:52:39;;;;;;;5.47;2.08;;;23.00;99.90;;;;;;3993030;29;20191;-93
2023/08/04 08:54:40;;;;;;;4.32;1.98;;;22.50;99.90;;;;;;3978079;29;20638;-93
2023/08/04 08:56:41;;;;;;;5.78;2.20;;;23.10;99.90;;;;;;3992547;29;20191;-94
2023/08/04 08:58:42;;;;;;;5.30;2.30;;;23.30;99.90;;;;;;3977663;29;20184;-89
2023/08/04 09:00:43;;;;;;;38.35;5.03;;;23.70;99.90;;;;;;3992608;29;20229;-92
2023/08/04 09:02:45;;;;;;;48.97;5.95;;;24.40;99.90;;;;;;3977613;29;20271;-90
2023/08/04 09:04:46;;;;;;;11.75;2.80;;;24.90;99.90;;;;;;3992623;29;20243;-90
2023/08/04 09:06:47;;;;;;;5.72;2.30;;;24.90;99.90;;;;;;4007816;29;20673;-93
2023/08/04 09:08:48;;;;;;;6.65;2.45;;;24.40;99.90;;;;;;3992339;29;20243;-90
2023/08/04 09:10:48;;;;;;;95.22;11.75;;;24.50;99.90;;;;;;4007608;29;20186;-91
2023/08/04 09:12:51;;;;;;;62.55;7.47;;;25.00;99.90;;;;;;4007676;29;20195;-93
2023/08/04 09:14:54;;;;;;;12.02;2.30;;;25.50;99.90;;;;;;4023188;29;20190;-88
2023/08/04 09:16:55;;;;;;;25.23;4.57;;;25.70;99.90;;;;;;4007794;29;20183;-91
2023/08/04 09:19:06;;;;;;;7.43;2.17;;;25.50;99.90;;;;;;3992734;29;20194;-90
2023/08/04 09:21:07;;;;;;;4.13;2.10;;;25.70;99.90;;;;;;4007581;29;20810;-90
2023/08/04 09:23:10;;;;;;;7.43;2.30;;;25.40;99.90;;;;;;3977513;29;20188;-90
2023/08/04 09:25:11;;;;;;;8.00;1.85;;;24.80;99.90;;;;;;3993010;29;20667;-91
2023/08/04 09:27:28;;;;;;;4.88;1.85;;;25.30;99.90;;;;;;4007606;29;20183;-90
2023/08/04 09:29:29;;;;;;;5.10;1.90;;;25.50;99.90;;;;;;4007438;29;20238;-90
2023/08/04 09:31:37;;;;;;;3.80;2.00;;;25.30;99.90;;;;;;3977221;29;20620;-89
2023/08/04 09:33:41;;;;;;;4.47;1.90;;;25.80;99.90;;;;;;3992716;29;20190;-90
2023/08/04 09:35:44;;;;;;;4.63;2.00;;;25.70;99.90;;;;;;4022812;29;20190;-90
2023/08/04 09:37:45;;;;;;;6.90;1.98;;;25.70;99.90;;;;;;4007452;29;20585;-90
2023/08/04 09:39:46;;;;;;;3.33;1.63;;;26.00;99.90;;;;;;3992571;29;20589;-90
2023/08/04 09:41:47;;;;;;;6.28;1.42;;;25.70;99.90;;;;;;3977347;29;20195;-90
2023/08/04 09:43:49;;;;;;;7.07;1.75;;;25.40;99.90;;;;;;3992688;29;20183;-89
2023/08/04 09:45:56;;;;;;;6.22;1.80;;;25.10;99.90;;;;;;4022346;29;20198;-90
2023/08/04 09:47:56;;;;;;;6.28;2.10;;;24.40;99.90;;;;;;4022324;29;20170;-90
2023/08/04 09:49:57;;;;;;;4.28;1.67;;;24.30;99.90;;;;;;4007067;29;20269;-93
2023/08/04 09:51:59;;;;;;;3.00;1.17;;;24.60;99.90;;;;;;4007340;29;20227;-90
2023/08/04 09:53:59;;;;;;;4.20;1.50;;;25.10;99.90;;;;;;3992166;29;20658;-95
2023/08/04 09:56:01;;;;;;;5.97;1.52;;;25.70;99.90;;;;;;4007016;29;20183;-89
2023/08/04 09:58:03;;;;;;;4.22;1.35;;;25.00;99.90;;;;;;3992445;29;20210;-89
2023/08/04 10:00:08;;;;;;;3.40;1.30;;;24.10;99.90;;;;;;3991553;29;20203;-94
2023/08/04 10:02:10;;;;;;;6.95;1.65;;;23.60;99.90;;;;;;4006787;29;20207;-89
2023/08/04 10:04:11;;;;;;;6.10;1.20;;;23.60;99.90;;;;;;4022339;29;20190;-88
2023/08/04 10:06:12;;;;;;;4.18;0.77;;;23.50;99.90;;;;;;4022357;29;20217;-89
2023/08/04 10:08:13;;;;;;;2.25;0.80;;;23.30;99.90;;;;;;3992240;29;20219;-88
2023/08/04 10:10:14;;;;;;;3.05;1.10;;;23.70;99.90;;;;;;4007001;29;20222;-89
2023/08/04 10:12:17;;;;;;;8.88;1.10;;;23.60;99.90;;;;;;4006762;29;20626;-90
2023/08/04 10:14:18;;;;;;;6.03;0.88;;;23.80;99.90;;;;;;3991947;29;20196;-88
2023/08/04 10:16:23;;;;;;;3.10;0.90;;;23.60;99.90;;;;;;4006719;29;20650;-89
2023/08/04 10:18:25;;;;;;;4.70;0.93;;;22.80;99.90;;;;;;3991761;29;20236;-88
2023/08/04 10:20:27;;;;;;;5.05;1.10;;;22.70;99.90;;;;;;3991794;29;20328;-95
2023/08/04 10:22:28;;;;;;;2.47;1.10;;;22.70;99.90;;;;;;4006949;29;20198;-92
2023/08/04 10:24:28;;;;;;;6.60;1.15;;;22.70;99.90;;;;;;3991934;29;20183;-88
2023/08/04 10:26:34;;;;;;;1.98;0.85;;;22.70;99.90;;;;;;3991870;29;20206;-89